Louisbourg, Canada
Current Conditions -  °F | °C
As of 6:43 PM on Wednesday 22 Oct 2014 (Local Time) from CYQY Reporting Station
Overcast Overcast  
Wind Chill: 50°   Ceiling: 900
Heat Index: 50°   Visibility: 15mi
Dew Point: 48°   Wind: 8mph
Humidity: 94%   Direction: 60°ENE
Pressure: 30.38"   Gusts: NA
Location:  45.92°N, 59.98°W
Report Text: CYQY 222143Z 06007KT 15SM BKN009 OVC120 10/09 A3038 RMK ST7AC1 SLP290
Loading
Personal Weather Stations






























Interactive Weather Map New forecast layout! Learn more

10-Day Weather Forecast

Advertisements
Track Severe Weather on mobile